createdAt,value
2018-03-02T00:01:24.574Z,29.63
2018-03-02T00:03:52.054Z,28.23
2018-03-02T00:06:20.314Z,29.33
2018-03-02T00:08:47.790Z,27.17
2018-03-02T00:11:15.283Z,28.73
2018-03-02T00:13:42.766Z,29.57
2018-03-02T00:16:10.262Z,29.05
2018-03-02T00:18:37.760Z,27.83
2018-03-02T00:21:05.261Z,28.37
2018-03-02T00:23:32.742Z,29.17
2018-03-02T00:26:01.328Z,31.03
2018-03-02T00:28:29.579Z,30.33
2018-03-02T00:30:57.071Z,31.03
2018-03-02T00:33:25.302Z,28.13
2018-03-02T00:35:52.809Z,29.70
2018-03-02T00:38:20.292Z,28.52
2018-03-02T00:40:47.789Z,28.07
2018-03-02T00:43:15.287Z,32.23
2018-03-02T00:45:42.780Z,29.67
2018-03-02T00:48:10.311Z,29.50
2018-03-02T00:50:37.778Z,30.93
2018-03-02T00:53:05.273Z,28.23
2018-03-02T00:55:32.786Z,29.50
2018-03-02T00:58:00.262Z,29.60
2018-03-02T01:00:27.749Z,31.15
2018-03-02T01:02:55.238Z,29.17
2018-03-02T01:05:23.488Z,31.23
2018-03-02T01:07:50.970Z,28.03
2018-03-02T01:10:19.209Z,28.55
2018-03-02T01:12:46.698Z,30.00
2018-03-02T01:15:14.948Z,31.70
2018-03-02T01:17:42.448Z,32.13
2018-03-02T01:20:09.950Z,31.57
2018-03-02T01:22:37.432Z,32.90
2018-03-02T01:25:04.930Z,30.77
2018-03-02T01:27:32.438Z,29.97
2018-03-02T01:29:59.956Z,29.87
2018-03-02T01:32:27.484Z,31.87
2018-03-02T01:34:55.736Z,32.70
2018-03-02T01:37:23.237Z,32.40
2018-03-02T01:39:50.720Z,31.77
2018-03-02T01:42:19.003Z,30.40
2018-03-02T01:44:46.533Z,30.58
2018-03-02T01:47:14.041Z,31.83
2018-03-02T01:49:41.525Z,34.67
2018-03-02T01:52:09.783Z,29.30
2018-03-02T01:54:37.266Z,31.60
2018-03-02T01:57:05.527Z,30.20
2018-03-02T01:59:33.014Z,31.83
2018-03-02T02:02:00.509Z,30.00
2018-03-02T02:04:27.993Z,31.50
2018-03-02T02:06:55.495Z,32.20
2018-03-02T02:09:23.023Z,33.97
2018-03-02T02:11:51.315Z,31.52
2018-03-02T02:14:18.804Z,32.07
2018-03-02T02:16:46.299Z,31.42
2018-03-02T02:19:13.803Z,29.63
2018-03-02T02:21:41.297Z,31.30
2018-03-02T02:24:08.815Z,32.43
2018-03-02T02:26:36.310Z,31.07
2018-03-02T02:29:03.815Z,31.33
2018-03-02T02:31:32.078Z,32.13
2018-03-02T02:34:00.344Z,31.73
2018-03-02T02:36:27.832Z,31.90
2018-03-02T02:38:56.099Z,31.33
2018-03-02T02:41:24.366Z,32.90
2018-03-02T02:43:52.642Z,33.63
2018-03-02T02:46:20.887Z,32.60
2018-03-02T02:48:48.391Z,31.20
2018-03-02T02:51:15.873Z,32.10
2018-03-02T02:53:43.379Z,32.73
2018-03-02T02:56:10.853Z,32.03
2018-03-02T02:58:39.128Z,31.70
2018-03-02T03:01:07.399Z,33.30
2018-03-02T03:03:35.689Z,32.90
2018-03-02T03:06:03.950Z,34.27
2018-03-02T03:08:31.464Z,33.60
2018-03-02T03:10:59.778Z,32.90
2018-03-02T03:13:27.286Z,33.47
2018-03-02T03:15:54.780Z,31.10
2018-03-02T03:18:22.285Z,34.10
2018-03-02T03:20:49.771Z,31.70
2018-03-02T03:23:17.251Z,31.50
2018-03-02T03:25:44.753Z,32.80
2018-03-02T03:28:13.018Z,31.57
2018-03-02T03:30:41.303Z,35.17
2018-03-02T03:33:09.561Z,32.97
2018-03-02T03:35:37.843Z,33.67
2018-03-02T03:38:06.104Z,31.37
2018-03-02T03:40:35.102Z,30.67
2018-03-02T03:43:02.677Z,33.10
2018-03-02T03:45:30.940Z,33.40
2018-03-02T03:47:59.201Z,32.75
2018-03-02T03:50:26.700Z,31.40
2018-03-02T03:52:54.948Z,32.00
2018-03-02T03:55:22.435Z,33.22
2018-03-02T03:57:49.927Z,30.23
2018-03-02T04:00:17.430Z,31.30
2018-03-02T04:02:45.695Z,29.57
2018-03-02T04:05:13.710Z,32.28
2018-03-02T04:07:41.205Z,31.53
2018-03-02T04:10:08.702Z,32.17
2018-03-02T04:12:36.962Z,32.77
2018-03-02T04:15:04.465Z,32.13
2018-03-02T04:17:31.949Z,31.33
2018-03-02T04:19:59.457Z,34.60
2018-03-02T04:22:26.940Z,29.70
2018-03-02T04:24:54.465Z,31.73
2018-03-02T04:27:22.722Z,30.97
2018-03-02T04:29:50.207Z,31.80
2018-03-02T04:32:18.475Z,31.27
2018-03-02T04:34:46.741Z,34.10
2018-03-02T04:37:15.006Z,32.93
2018-03-02T04:39:42.589Z,32.75
2018-03-02T04:42:10.845Z,33.60
2018-03-02T04:44:38.349Z,34.30
2018-03-02T04:47:05.851Z,32.27
2018-03-02T04:49:33.359Z,30.65
2018-03-02T04:52:00.862Z,31.70
2018-03-02T04:54:28.337Z,33.50
2018-03-02T04:56:55.830Z,33.53
2018-03-02T04:59:23.311Z,32.83
2018-03-02T05:01:50.809Z,33.53
2018-03-02T05:04:18.308Z,31.20
2018-03-02T05:06:45.816Z,31.57
2018-03-02T05:09:13.299Z,32.77
2018-03-02T05:11:41.556Z,31.90
2018-03-02T05:14:09.055Z,33.00
2018-03-02T05:16:36.571Z,35.20
2018-03-02T05:19:04.057Z,32.90
2018-03-02T05:21:31.604Z,32.40
2018-03-02T05:23:59.089Z,32.97
2018-03-02T05:26:27.352Z,33.40
2018-03-02T05:28:55.617Z,30.10
2018-03-02T05:31:23.890Z,30.83
2018-03-02T05:33:52.147Z,33.05
2018-03-02T05:36:20.423Z,30.90
2018-03-02T05:38:47.941Z,33.40
2018-03-02T05:41:15.442Z,34.20
2018-03-02T05:43:43.047Z,32.47
2018-03-02T05:46:10.584Z,32.60
2018-03-02T05:48:38.076Z,34.83
2018-03-02T05:51:09.499Z,31.33
2018-03-02T05:53:37.763Z,32.10
2018-03-02T05:56:06.030Z,33.93
2018-03-02T05:58:33.538Z,34.10
2018-03-02T06:01:01.034Z,36.83
2018-03-02T06:03:28.547Z,33.90
2018-03-02T06:05:56.037Z,33.37
2018-03-02T06:08:24.297Z,34.77
2018-03-02T06:10:51.777Z,34.13
2018-03-02T06:13:19.305Z,34.17
2018-03-02T06:15:46.793Z,34.00
2018-03-02T06:18:14.297Z,34.25
2018-03-02T06:20:42.537Z,33.03
2018-03-02T06:23:10.049Z,33.03
2018-03-02T06:25:37.550Z,32.50
2018-03-02T06:28:05.074Z,34.93
2018-03-02T06:30:32.554Z,33.00
2018-03-02T06:33:00.082Z,32.27
2018-03-02T06:35:27.569Z,35.00
2018-03-02T06:37:55.066Z,33.00
2018-03-02T06:40:23.369Z,34.47
2018-03-02T06:42:50.891Z,34.90
2018-03-02T06:45:18.392Z,34.30
2018-03-02T06:47:45.888Z,34.27
2018-03-02T06:50:13.384Z,33.70
2018-03-02T06:52:41.659Z,34.80
2018-03-02T06:55:09.921Z,34.50
2018-03-02T06:57:37.422Z,35.27
2018-03-02T07:00:04.909Z,32.50
2018-03-02T07:02:32.397Z,34.30
2018-03-02T07:05:00.648Z,33.27
2018-03-02T07:07:28.123Z,33.80
2018-03-02T07:09:55.609Z,35.10
2018-03-02T07:12:23.093Z,34.23
2018-03-02T07:14:50.591Z,35.20
2018-03-02T07:17:21.756Z,33.93
2018-03-02T07:19:49.246Z,33.80
2018-03-02T07:22:16.746Z,34.20
2018-03-02T07:24:44.243Z,33.37
2018-03-02T07:27:11.713Z,35.00
2018-03-02T07:29:39.208Z,36.97
2018-03-02T07:32:06.696Z,34.63
2018-03-02T07:34:34.979Z,35.03
2018-03-02T07:37:03.243Z,33.80
2018-03-02T07:39:31.527Z,31.10
2018-03-02T07:41:59.817Z,31.77
2018-03-02T07:44:28.062Z,33.57
2018-03-02T07:46:55.562Z,34.73
2018-03-02T07:49:23.060Z,34.17
2018-03-02T07:51:50.568Z,33.13
2018-03-02T07:54:18.807Z,35.60
2018-03-02T07:56:46.426Z,35.67
2018-03-02T07:59:13.911Z,35.27
2018-03-02T08:01:41.409Z,33.97
2018-03-02T08:04:09.674Z,34.67
2018-03-02T08:06:37.166Z,34.70
2018-03-02T08:09:06.146Z,34.20
2018-03-02T08:11:33.639Z,34.83
2018-03-02T08:14:01.125Z,33.80
2018-03-02T08:16:28.622Z,35.50
2018-03-02T08:18:56.118Z,34.75
2018-03-02T08:21:23.611Z,32.20
2018-03-02T08:23:51.105Z,32.87
2018-03-02T08:26:18.651Z,35.40
2018-03-02T08:28:46.150Z,34.03
2018-03-02T08:31:14.489Z,35.80
2018-03-02T08:33:41.989Z,28.67
2018-03-02T08:36:09.513Z,33.00
2018-03-02T08:38:37.000Z,34.40
2018-03-02T08:41:04.544Z,32.50
2018-03-02T08:43:32.766Z,33.77
2018-03-02T08:46:01.039Z,31.63
2018-03-02T08:48:28.536Z,32.05
2018-03-02T08:50:56.035Z,32.47
2018-03-02T08:53:24.310Z,34.90
2018-03-02T08:55:51.803Z,31.70
2018-03-02T08:58:19.308Z,31.20
2018-03-02T09:00:46.838Z,34.53
2018-03-02T09:03:15.100Z,35.20
2018-03-02T09:05:43.355Z,31.90
2018-03-02T09:08:11.670Z,30.87
2018-03-02T09:10:39.255Z,31.60
2018-03-02T09:13:08.207Z,33.53
2018-03-02T09:15:36.461Z,30.03
2018-03-02T09:18:03.966Z,32.37
2018-03-02T09:20:31.447Z,32.30
2018-03-02T09:22:58.944Z,32.07
2018-03-02T09:25:26.441Z,34.13
2018-03-02T09:27:53.949Z,33.17
2018-03-02T09:30:21.457Z,30.73
2018-03-02T09:32:48.951Z,30.90
2018-03-02T09:35:16.470Z,33.73
2018-03-02T09:37:44.004Z,33.10
2018-03-02T09:40:12.270Z,32.63
2018-03-02T09:42:39.819Z,32.10
2018-03-02T09:45:07.284Z,33.17
2018-03-02T09:47:34.765Z,34.03
2018-03-02T09:50:03.068Z,33.80
2018-03-02T09:52:30.565Z,32.33
2018-03-02T09:54:58.834Z,27.57
2018-03-02T09:57:26.348Z,34.25
2018-03-02T09:59:53.859Z,33.80
2018-03-02T10:02:21.369Z,34.50
2018-03-02T10:04:49.622Z,33.97
2018-03-02T10:07:17.879Z,34.10
2018-03-02T10:09:45.373Z,33.53
2018-03-02T10:12:12.922Z,33.50
2018-03-02T10:14:41.169Z,34.33
2018-03-02T10:17:09.471Z,31.60
2018-03-02T10:19:37.738Z,32.00
2018-03-02T10:22:06.017Z,31.43
2018-03-02T10:24:34.297Z,32.70
2018-03-02T10:27:02.580Z,31.83
2018-03-02T10:29:31.251Z,34.60
2018-03-02T10:31:59.522Z,34.73
2018-03-02T10:34:26.999Z,33.50
2018-03-02T10:36:55.311Z,32.77
2018-03-02T10:39:22.796Z,33.77
2018-03-02T10:41:50.297Z,32.50
2018-03-02T10:44:18.558Z,32.87
2018-03-02T10:46:46.820Z,34.10
2018-03-02T10:49:14.319Z,30.80
2018-03-02T10:51:41.840Z,31.90
2018-03-02T10:54:09.335Z,34.80
2018-03-02T10:56:36.918Z,30.67
2018-03-02T10:59:04.419Z,30.43
2018-03-02T11:01:32.694Z,32.47
2018-03-02T11:04:01.124Z,33.13
2018-03-02T11:06:28.622Z,33.07
2018-03-02T11:08:56.111Z,32.00
2018-03-02T11:11:24.363Z,30.53
2018-03-02T11:13:52.617Z,32.23
2018-03-02T11:16:20.102Z,31.97
2018-03-02T11:18:48.359Z,30.87
2018-03-02T11:21:15.843Z,31.20
2018-03-02T11:23:44.094Z,34.27
2018-03-02T11:26:11.587Z,32.27
2018-03-02T11:28:39.828Z,32.70
2018-03-02T11:31:07.319Z,32.13
2018-03-02T11:33:35.598Z,33.47
2018-03-02T11:36:03.109Z,32.47
2018-03-02T11:38:30.587Z,32.87
2018-03-02T11:40:58.081Z,32.77
2018-03-02T11:43:25.583Z,31.70
2018-03-02T11:45:53.092Z,33.43
2018-03-02T11:48:21.336Z,35.30
2018-03-02T11:50:49.591Z,32.33
2018-03-02T11:53:17.100Z,31.13
2018-03-02T11:55:44.581Z,33.07
2018-03-02T11:58:12.089Z,34.13
2018-03-02T12:00:39.570Z,32.70
2018-03-02T12:03:07.085Z,33.87
2018-03-02T12:05:34.590Z,35.20
2018-03-02T12:08:03.556Z,34.73
2018-03-02T12:10:31.810Z,37.70
2018-03-02T12:12:59.299Z,35.13
2018-03-02T12:15:27.578Z,35.07
2018-03-02T12:17:55.855Z,32.63
2018-03-02T12:20:24.114Z,33.47
2018-03-02T12:22:51.624Z,34.90
2018-03-02T12:25:19.113Z,34.10
2018-03-02T12:27:46.603Z,32.70
2018-03-02T12:30:14.872Z,32.30
2018-03-02T12:32:43.151Z,34.60
2018-03-02T12:35:11.449Z,35.97
2018-03-02T12:37:38.942Z,36.53
2018-03-02T12:40:06.461Z,33.28
2018-03-02T12:42:34.716Z,35.97
2018-03-02T12:45:02.213Z,34.23
2018-03-02T12:47:29.683Z,32.40
2018-03-02T12:49:57.191Z,32.53
2018-03-02T12:52:24.759Z,33.50
2018-03-02T12:54:53.012Z,33.83
2018-03-02T12:57:20.491Z,35.00
2018-03-02T12:59:48.751Z,33.20
2018-03-02T13:02:16.230Z,33.80
2018-03-02T13:04:44.473Z,34.60
2018-03-02T13:07:11.958Z,34.77
2018-03-02T13:09:40.222Z,33.50
2018-03-02T13:12:07.697Z,35.57
2018-03-02T13:14:36.042Z,35.60
2018-03-02T13:17:03.579Z,34.80
2018-03-02T13:19:31.055Z,35.90
2018-03-02T13:21:58.547Z,32.87
2018-03-02T13:24:26.786Z,36.17
2018-03-02T13:27:06.337Z,32.27
2018-03-02T13:29:34.592Z,32.90
2018-03-02T13:32:02.099Z,34.60
2018-03-02T13:34:42.357Z,32.73
2018-03-02T13:37:10.625Z,39.20
2018-03-02T13:39:50.036Z,32.93
2018-03-02T13:42:17.526Z,35.50
2018-03-02T13:44:45.767Z,31.87
2018-03-02T13:47:13.257Z,39.80
2018-03-02T13:50:06.169Z,35.07
2018-03-02T13:52:35.207Z,34.45
2018-03-02T13:55:03.456Z,32.70
2018-03-02T13:57:42.864Z,36.67
2018-03-02T14:00:10.346Z,32.93
2018-03-02T14:02:50.973Z,37.87
2018-03-02T14:05:18.476Z,36.80
2018-03-02T14:07:45.973Z,32.97
2018-03-02T14:10:14.202Z,36.80
2018-03-02T14:12:43.106Z,36.37
2018-03-02T14:15:10.572Z,33.20
2018-03-02T14:17:38.831Z,35.80
2018-03-02T14:20:06.316Z,37.10
2018-03-02T14:22:34.594Z,34.47
2018-03-02T14:25:02.893Z,37.38
2018-03-02T14:27:30.361Z,43.60
2018-03-02T14:29:57.851Z,41.80
2018-03-02T14:32:25.351Z,39.70
2018-03-02T14:34:53.601Z,40.27
2018-03-02T14:37:21.078Z,40.50
2018-03-02T14:39:49.354Z,42.37
2018-03-02T14:42:17.602Z,39.20
2018-03-02T14:44:45.078Z,40.80
2018-03-02T14:47:13.329Z,39.93
2018-03-02T14:49:40.827Z,41.00
2018-03-02T14:52:09.098Z,39.97
2018-03-02T14:54:37.333Z,40.37
2018-03-02T14:57:04.870Z,41.83
2018-03-02T14:59:32.372Z,41.20
2018-03-02T15:01:59.863Z,40.60
2018-03-02T15:04:27.362Z,42.60
2018-03-02T15:06:54.854Z,40.93
2018-03-02T15:09:22.394Z,39.38
2018-03-02T15:11:49.877Z,40.13
2018-03-02T15:14:18.140Z,40.77
2018-03-02T15:16:46.409Z,39.93
2018-03-02T15:19:13.940Z,42.15
2018-03-02T15:21:41.455Z,41.40
2018-03-02T15:24:10.991Z,30.63
2018-03-02T15:26:39.009Z,36.90
2018-03-02T15:29:06.510Z,37.70
2018-03-02T15:31:34.011Z,37.77
2018-03-02T15:34:01.508Z,34.17
2018-03-02T15:36:29.768Z,35.00
2018-03-02T15:38:58.038Z,37.40
2018-03-02T15:41:26.291Z,34.30
2018-03-02T15:43:53.803Z,37.80
2018-03-02T15:46:21.308Z,37.53
2018-03-02T15:48:48.794Z,35.07
2018-03-02T15:51:17.248Z,36.90
2018-03-02T15:53:44.752Z,36.00
2018-03-02T15:56:13.006Z,35.37
2018-03-02T15:58:42.006Z,35.70
2018-03-02T16:01:10.248Z,37.80
2018-03-02T16:03:37.744Z,36.42
2018-03-02T16:06:05.996Z,34.63
2018-03-02T16:08:33.493Z,37.47
2018-03-02T16:11:01.747Z,36.37
2018-03-02T16:13:30.012Z,38.60
2018-03-02T16:15:57.512Z,38.43
2018-03-02T16:18:25.006Z,39.77
2018-03-02T16:20:52.505Z,38.30
2018-03-02T16:23:20.753Z,37.73
2018-03-02T16:25:48.259Z,34.92
2018-03-02T16:28:15.759Z,38.73
2018-03-02T16:30:43.277Z,36.07
2018-03-02T16:33:10.782Z,39.40
2018-03-02T16:35:41.658Z,36.20
2018-03-02T16:38:09.916Z,37.40
2018-03-02T16:40:37.426Z,37.53
2018-03-02T16:43:04.922Z,39.90
2018-03-02T16:45:33.195Z,36.70
2018-03-02T16:48:00.675Z,37.17
2018-03-02T16:50:28.941Z,37.93
2018-03-02T16:53:00.887Z,40.33
2018-03-02T16:55:28.385Z,40.57
2018-03-02T16:57:55.920Z,41.10
2018-03-02T17:00:23.411Z,38.47
2018-03-02T17:02:50.891Z,40.17
2018-03-02T17:05:18.569Z,38.93
2018-03-02T17:07:46.062Z,42.00
2018-03-02T17:10:14.339Z,42.10
2018-03-02T17:12:42.604Z,42.23
2018-03-02T17:15:10.096Z,40.80
2018-03-02T17:17:37.591Z,42.93
2018-03-02T17:20:05.323Z,45.43
2018-03-02T17:22:32.817Z,46.47
2018-03-02T17:25:00.308Z,44.40
2018-03-02T17:27:28.562Z,46.20
2018-03-02T17:29:56.049Z,48.75
2018-03-02T17:32:24.307Z,47.80
2018-03-02T17:34:51.793Z,44.50
2018-03-02T17:37:20.072Z,47.00
2018-03-02T17:39:48.365Z,48.00
2018-03-02T17:42:16.615Z,44.50
2018-03-02T17:44:44.863Z,48.03
2018-03-02T17:47:12.373Z,52.97
2018-03-02T17:49:39.872Z,50.00
2018-03-02T17:52:07.366Z,46.37
2018-03-02T17:54:35.606Z,49.00
2018-03-02T17:57:03.194Z,48.03
2018-03-02T17:59:31.448Z,48.90
2018-03-02T18:01:58.943Z,49.83
2018-03-02T18:04:26.443Z,50.27
2018-03-02T18:06:53.938Z,46.70
2018-03-02T18:09:21.425Z,47.53
2018-03-02T18:11:48.934Z,48.07
2018-03-02T18:14:16.435Z,47.53
2018-03-02T18:16:44.795Z,50.50
2018-03-02T18:19:13.061Z,49.47
2018-03-02T18:21:40.576Z,47.43
2018-03-02T18:24:08.066Z,51.77
2018-03-02T18:26:35.574Z,64.20
2018-03-02T18:29:03.055Z,60.27
2018-03-02T18:31:30.572Z,53.40
2018-03-02T18:33:58.852Z,52.23
2018-03-02T18:36:27.129Z,53.37
2018-03-02T18:38:54.635Z,51.63
2018-03-02T18:41:22.141Z,51.00
2018-03-02T18:43:50.405Z,51.00
2018-03-02T18:46:18.692Z,48.73
2018-03-02T18:48:46.973Z,47.80
2018-03-02T18:51:14.535Z,50.73
2018-03-02T18:53:42.052Z,49.80
2018-03-02T18:56:09.645Z,56.00
2018-03-02T18:58:37.902Z,51.15
2018-03-02T19:01:06.176Z,54.73
2018-03-02T19:03:33.695Z,57.80
2018-03-02T19:06:02.231Z,54.10
2018-03-02T19:08:30.006Z,55.55
2018-03-02T19:10:58.274Z,58.13
2018-03-02T19:13:26.582Z,56.90
2018-03-02T19:15:54.121Z,58.73
2018-03-02T19:18:22.402Z,55.03
2018-03-02T19:20:57.169Z,57.07
2018-03-02T19:23:24.663Z,56.90
2018-03-02T19:25:52.916Z,56.37
2018-03-02T19:28:20.421Z,62.33
2018-03-02T19:30:47.934Z,57.20
2018-03-02T19:33:15.495Z,60.50
2018-03-02T19:35:44.005Z,55.83
2018-03-02T19:38:12.253Z,59.17
2018-03-02T19:40:39.784Z,55.37
2018-03-02T19:43:07.300Z,56.70
2018-03-02T19:45:35.577Z,57.57
2018-03-02T19:48:03.855Z,59.67
2018-03-02T19:50:32.122Z,59.97
2018-03-02T19:52:59.653Z,61.55
2018-03-02T19:55:27.144Z,63.40
2018-03-02T19:57:55.428Z,53.67
2018-03-02T20:00:23.695Z,53.07
2018-03-02T20:02:51.964Z,54.97
2018-03-02T20:05:19.445Z,52.50
2018-03-02T20:07:47.725Z,51.63
2018-03-02T20:10:15.232Z,56.67
2018-03-02T20:12:42.721Z,56.10
2018-03-02T20:15:10.978Z,56.05
2018-03-02T20:17:38.470Z,52.57
2018-03-02T20:20:05.989Z,58.33
2018-03-02T20:22:33.490Z,53.77
2018-03-02T20:25:01.005Z,59.67
2018-03-02T20:27:28.495Z,56.17
2018-03-02T20:29:56.760Z,55.87
2018-03-02T20:32:24.253Z,54.87
2018-03-02T20:34:51.775Z,59.33
2018-03-02T20:37:20.032Z,60.30
2018-03-02T20:39:47.531Z,56.83
2018-03-02T20:42:15.023Z,55.90
2018-03-02T20:44:42.527Z,64.83
2018-03-02T20:47:10.778Z,63.95
2018-03-02T20:49:38.275Z,61.30
2018-03-02T20:52:06.538Z,54.50
2018-03-02T20:54:34.810Z,55.87
2018-03-02T20:57:03.075Z,57.80
2018-03-02T20:59:30.574Z,54.30
2018-03-02T21:01:59.202Z,56.20
2018-03-02T21:04:26.711Z,59.10
2018-03-02T21:06:54.243Z,54.97
2018-03-02T21:09:22.514Z,55.00
2018-03-02T21:11:50.016Z,55.73
2018-03-02T21:14:25.485Z,58.33
2018-03-02T21:16:52.991Z,58.27
2018-03-02T21:19:21.402Z,56.27
2018-03-02T21:21:48.941Z,57.37
2018-03-02T21:24:17.219Z,58.50
2018-03-02T21:26:45.476Z,56.47
2018-03-02T21:29:12.995Z,56.67
2018-03-02T21:31:40.481Z,59.47
2018-03-02T21:34:07.983Z,59.43
2018-03-02T21:36:35.482Z,57.57
2018-03-02T21:39:02.968Z,56.80
2018-03-02T21:41:31.230Z,56.07
2018-03-02T21:43:58.716Z,57.63
2018-03-02T21:46:26.988Z,59.90
2018-03-02T21:48:55.252Z,59.57
2018-03-02T21:51:23.529Z,57.10
2018-03-02T21:53:51.023Z,56.40
2018-03-02T21:56:18.520Z,60.23
2018-03-02T21:58:46.032Z,57.27
2018-03-02T22:01:13.547Z,59.90
2018-03-02T22:03:41.041Z,62.27
2018-03-02T22:06:08.562Z,59.77
2018-03-02T22:08:36.042Z,63.90
2018-03-02T22:11:04.313Z,66.37
2018-03-02T22:13:32.586Z,62.30
2018-03-02T22:16:00.069Z,60.77
2018-03-02T22:18:27.567Z,60.33
2018-03-02T22:20:55.078Z,61.87
2018-03-02T22:23:23.353Z,60.97
2018-03-02T22:25:51.629Z,62.70
2018-03-02T22:28:19.879Z,59.60
2018-03-02T22:30:47.388Z,65.90
2018-03-02T22:33:15.644Z,64.00
2018-03-02T22:35:43.910Z,61.37
2018-03-02T22:38:12.178Z,60.00
2018-03-02T22:40:40.455Z,60.67
2018-03-02T22:43:08.764Z,62.10
2018-03-02T22:45:36.302Z,60.73
2018-03-02T22:48:03.830Z,64.80
2018-03-02T22:50:31.345Z,66.87
2018-03-02T22:52:58.837Z,65.17
2018-03-02T22:55:26.331Z,63.47
2018-03-02T22:57:54.614Z,61.17
2018-03-02T23:00:22.864Z,62.17
2018-03-02T23:02:51.133Z,64.50
2018-03-02T23:05:18.914Z,62.47
2018-03-02T23:07:46.436Z,60.47
2018-03-02T23:10:13.936Z,60.70
2018-03-02T23:12:41.443Z,64.17
2018-03-02T23:15:08.936Z,63.00
2018-03-02T23:17:36.448Z,62.10
2018-03-02T23:20:03.934Z,60.83
2018-03-02T23:22:31.438Z,61.97
2018-03-02T23:24:59.689Z,64.70
2018-03-02T23:27:27.962Z,61.70
2018-03-02T23:29:55.453Z,64.67
2018-03-02T23:32:22.978Z,64.33
2018-03-02T23:34:50.468Z,64.37
2018-03-02T23:37:18.743Z,63.80
2018-03-02T23:39:46.999Z,62.43
2018-03-02T23:42:15.484Z,62.23
2018-03-02T23:44:43.731Z,59.33
2018-03-02T23:47:11.328Z,60.33
2018-03-02T23:49:39.580Z,59.73
2018-03-02T23:52:08.587Z,59.90
2018-03-02T23:54:36.839Z,59.67
2018-03-02T23:57:04.349Z,59.83
2018-03-02T23:59:31.845Z,59.63
